createdAt,value
2022-11-27T00:08:02.691Z,1026.26
2022-11-27T00:18:02.569Z,1026.38
2022-11-27T00:28:02.984Z,1026.26
2022-11-27T00:38:03.095Z,1026.17
2022-11-27T00:48:03.256Z,1026.06
2022-11-27T00:58:03.294Z,1025.85
2022-11-27T01:08:03.605Z,1025.93
2022-11-27T01:18:03.630Z,1025.75
2022-11-27T01:28:03.986Z,1025.47
2022-11-27T01:38:04.024Z,1025.22
2022-11-27T01:48:04.453Z,1025.18
2022-11-27T01:58:04.480Z,1025.14
2022-11-27T02:08:04.928Z,1025.07
2022-11-27T02:18:04.986Z,1024.97
2022-11-27T02:28:05.300Z,1024.85
2022-11-27T02:38:05.330Z,1024.81
2022-11-27T02:48:05.675Z,1024.70
2022-11-27T02:58:05.696Z,1024.64
2022-11-27T03:08:06.040Z,1024.55
2022-11-27T03:18:06.062Z,1024.52
2022-11-27T03:28:06.309Z,1024.52
2022-11-27T03:38:06.321Z,1024.42
2022-11-27T03:48:06.679Z,1024.47
2022-11-27T03:58:06.698Z,1024.47
2022-11-27T04:08:07.044Z,1024.27
2022-11-27T04:18:07.069Z,1024.34
2022-11-27T04:28:07.417Z,1024.52
2022-11-27T04:38:07.449Z,1024.47
2022-11-27T04:48:07.796Z,1024.54
2022-11-27T04:58:07.820Z,1024.51
2022-11-27T05:08:08.170Z,1024.46
2022-11-27T05:18:08.195Z,1024.45
2022-11-27T05:28:08.683Z,1024.39
2022-11-27T05:38:08.499Z,1024.24
2022-11-27T05:48:08.795Z,1024.15
2022-11-27T05:58:08.814Z,1024.00
2022-11-27T06:08:09.164Z,1024.06
2022-11-27T06:18:09.197Z,1024.00
2022-11-27T06:28:09.538Z,1024.00
2022-11-27T06:38:09.570Z,1023.97
2022-11-27T06:48:09.908Z,1024.03
2022-11-27T06:58:09.905Z,1024.05
2022-11-27T07:08:10.442Z,1024.08
2022-11-27T07:18:11.221Z,1024.09
2022-11-27T07:28:13.616Z,1024.17
2022-11-27T07:38:11.611Z,1024.29
2022-11-27T07:48:10.842Z,1024.14
2022-11-27T07:58:11.072Z,1024.07
2022-11-27T08:08:11.406Z,1023.96
2022-11-27T08:18:11.425Z,1023.99
2022-11-27T08:28:11.753Z,1023.92
2022-11-27T08:38:11.780Z,1023.77
2022-11-27T08:48:12.025Z,1023.61
2022-11-27T08:58:12.364Z,1023.61
2022-11-27T09:08:12.505Z,1023.25
2022-11-27T09:18:12.512Z,1023.30
2022-11-27T09:28:12.758Z,1023.44
2022-11-27T09:38:12.985Z,1023.26
2022-11-27T09:48:13.233Z,1023.32
2022-11-27T09:58:13.453Z,1023.25
2022-11-27T10:08:13.784Z,1023.14
2022-11-27T10:18:13.904Z,1023.11
2022-11-27T10:28:14.180Z,1023.18
2022-11-27T10:38:14.207Z,1022.94
2022-11-27T10:48:14.433Z,1022.94
2022-11-27T10:58:14.659Z,1022.81
2022-11-27T11:08:15.949Z,1022.50
2022-11-27T11:18:14.968Z,1022.37
2022-11-27T11:28:15.197Z,1022.32
2022-11-27T11:38:15.520Z,1022.04
2022-11-27T11:48:15.664Z,1021.78
2022-11-27T11:58:15.711Z,1021.50
2022-11-27T12:08:15.825Z,1021.45
2022-11-27T12:18:15.896Z,1021.31
2022-11-27T12:28:16.001Z,1021.10
2022-11-27T12:38:16.007Z,1020.89
2022-11-27T12:48:16.257Z,1020.60
2022-11-27T12:58:16.566Z,1020.59
2022-11-27T13:08:16.625Z,1020.43
2022-11-27T13:18:17.012Z,1020.31
2022-11-27T13:28:17.567Z,1020.12
2022-11-27T13:38:17.181Z,1020.00
2022-11-27T13:48:17.668Z,1019.72
2022-11-27T13:58:17.569Z,1019.81
2022-11-27T14:08:19.892Z,1019.77
2022-11-27T14:18:17.929Z,1019.78
2022-11-27T14:28:18.224Z,1019.71
2022-11-27T14:38:18.256Z,1019.41
2022-11-27T14:48:18.511Z,1019.25
2022-11-27T14:58:18.727Z,1019.17
2022-11-27T15:08:19.057Z,1019.12
2022-11-27T15:18:19.111Z,1018.83
2022-11-27T15:28:19.671Z,1018.68
2022-11-27T15:38:19.610Z,1018.55
2022-11-27T15:48:19.710Z,1018.35
2022-11-27T15:58:19.847Z,1018.23
2022-11-27T16:08:19.974Z,1018.19
2022-11-27T16:18:20.001Z,1018.25
2022-11-27T16:28:20.411Z,1018.24
2022-11-27T16:38:20.608Z,1017.98
2022-11-27T16:48:21.959Z,1017.94
2022-11-27T16:58:21.133Z,1017.90
2022-11-27T17:08:21.070Z,1017.61
2022-11-27T17:18:21.118Z,1017.44
2022-11-27T17:28:21.636Z,1017.43
2022-11-27T17:38:22.601Z,1017.25
2022-11-27T17:48:22.063Z,1017.17
2022-11-27T17:58:22.222Z,1016.94
2022-11-27T18:08:22.407Z,1016.93
2022-11-27T18:18:22.302Z,1017.03
2022-11-27T18:28:22.805Z,1016.95
2022-11-27T18:38:22.957Z,1016.76
2022-11-27T18:48:25.123Z,1016.71
2022-11-27T18:58:23.034Z,1016.62
2022-11-27T19:08:23.516Z,1016.48
2022-11-27T19:18:24.363Z,1016.23
2022-11-27T19:28:23.850Z,1016.14
2022-11-27T19:38:23.802Z,1015.94
2022-11-27T19:48:24.127Z,1015.92
2022-11-27T19:58:23.848Z,1015.80
2022-11-27T20:08:24.586Z,1015.69
2022-11-27T20:18:24.548Z,1015.59
2022-11-27T20:28:24.728Z,1015.45
2022-11-27T20:38:24.889Z,1015.47
2022-11-27T20:48:32.230Z,1015.37
2022-11-27T20:58:25.833Z,1015.27
2022-11-27T21:08:25.952Z,1015.08
2022-11-27T21:18:25.436Z,1015.05
2022-11-27T21:28:25.484Z,1014.96
2022-11-27T21:38:25.511Z,1014.78
2022-11-27T21:48:25.860Z,1014.64
2022-11-27T21:58:25.880Z,1014.53
